Time;durP1;ratioP1;P1;durP2;ratioP2;P2;SDS_P1;SDS_P2;PMS_P1;PMS_P2;Temp;Humidity;BMP_temperature;BMP_pressure;BME280_temperature;BME280_humidity;BME280_pressure;Samples;Min_cycle;Max_cycle;Signal;HPM_P1;HPM_P2
2022/01/16 00:00:40;;;;;;;65.55;31.20;;;;;;;2.50;97.61;102223.44;2080469;28;45767;-75
2022/01/16 00:04:24;;;;;;;65.90;29.42;;;;;;;2.50;97.87;102224.34;2080212;28;40458;-75
2022/01/16 00:05:30;;;;;;;75.13;30.95;;;;;;;2.50;98.07;102226.09;2083298;28;41632;-75
2022/01/16 00:06:33;;;;;;;70.85;30.85;;;;;;;2.49;97.73;102222.53;2079978;28;44033;-74
2022/01/16 00:07:35;;;;;;;54.67;25.67;;;;;;;2.52;97.86;102224.38;2079823;28;46744;-74
2022/01/16 00:08:37;;;;;;;71.70;31.58;;;;;;;2.52;97.79;102220.00;2080377;28;20628;-74
2022/01/16 00:09:39;;;;;;;72.30;30.52;;;;;;;2.52;97.77;102219.09;2072036;28;41374;-74
2022/01/16 00:10:42;;;;;;;75.53;33.33;;;;;;;2.48;97.84;102202.25;2072500;28;20922;-74
2022/01/16 00:11:46;;;;;;;78.20;31.10;;;;;;;2.51;98.03;102199.66;2080096;28;43905;-74
2022/01/16 00:12:49;;;;;;;72.90;30.13;;;;;;;2.49;98.00;102190.81;2079481;28;40063;-74
2022/01/16 00:13:52;;;;;;;69.97;29.70;;;;;;;2.52;97.73;102192.66;2072522;28;33021;-74
2022/01/16 00:14:55;;;;;;;82.53;32.92;;;;;;;2.51;98.09;102190.84;2079179;28;41865;-75
2022/01/16 00:15:57;;;;;;;85.47;33.38;;;;;;;2.51;97.80;102197.03;2079454;28;45800;-75
2022/01/16 00:16:59;;;;;;;82.07;33.38;;;;;;;2.50;98.36;102205.81;2079675;28;45235;-77
2022/01/16 00:19:06;;;;;;;83.47;32.83;;;;;;;2.49;97.85;102214.59;2080367;28;42548;-74
2022/01/16 00:20:09;;;;;;;77.70;31.38;;;;;;;2.52;98.13;102208.53;2080411;28;43325;-74
2022/01/16 00:21:11;;;;;;;82.78;32.05;;;;;;;2.53;98.57;102219.16;2087760;28;44490;-75
2022/01/16 00:22:15;;;;;;;89.03;34.38;;;;;;;2.52;98.63;102216.47;2087966;28;43903;-75
2022/01/16 00:23:24;;;;;;;90.40;34.53;;;;;;;2.51;98.08;102212.00;2080078;28;45131;-75
2022/01/16 00:24:25;;;;;;;99.88;32.05;;;;;;;2.52;98.63;102209.41;2080422;28;42541;-75
2022/01/16 00:25:27;;;;;;;86.28;33.92;;;;;;;2.52;98.21;102204.13;2079825;28;46478;-76
2022/01/16 00:26:30;;;;;;;105.40;34.13;;;;;;;2.50;98.29;102205.81;2081673;28;20045;-74
2022/01/16 00:27:32;;;;;;;98.47;33.20;;;;;;;2.51;98.53;102212.00;2080171;28;46027;-74
2022/01/16 00:28:36;;;;;;;88.63;32.25;;;;;;;2.50;98.60;102215.50;2080909;28;20038;-74
2022/01/16 00:29:40;;;;;;;94.78;34.20;;;;;;;2.53;98.33;102223.53;2081048;28;42063;-74
2022/01/16 00:30:50;;;;;;;92.15;32.47;;;;;;;2.54;98.66;102222.69;2080198;28;45455;-74
2022/01/16 00:31:51;;;;;;;91.35;32.72;;;;;;;2.53;98.75;102232.38;2079499;28;45169;-74
2022/01/16 00:32:59;;;;;;;89.38;32.42;;;;;;;2.55;98.85;102221.81;2080101;28;44004;-74
2022/01/16 00:34:00;;;;;;;85.85;32.30;;;;;;;2.56;98.43;102226.25;2080080;28;37092;-71
2022/01/16 00:35:03;;;;;;;99.57;34.80;;;;;;;2.55;98.87;102220.09;2071962;28;45743;-74
2022/01/16 00:36:06;;;;;;;86.95;31.70;;;;;;;2.56;98.70;102224.50;2071727;28;45277;-74
2022/01/16 00:37:08;;;;;;;89.90;32.95;;;;;;;2.57;98.37;102228.97;2079461;28;46621;-74
2022/01/16 00:38:10;;;;;;;91.65;34.90;;;;;;;2.58;98.59;102212.22;2080409;28;41182;-73
2022/01/16 00:39:11;;;;;;;86.97;32.38;;;;;;;2.60;98.53;102212.28;2080364;28;32929;-74
2022/01/16 00:40:13;;;;;;;95.97;32.90;;;;;;;2.58;98.68;102196.38;2080611;28;43263;-74
2022/01/16 00:41:20;;;;;;;97.72;34.72;;;;;;;2.60;99.03;102207.91;2080077;28;44796;-75
2022/01/16 00:42:22;;;;;;;93.60;33.45;;;;;;;2.60;98.95;102202.63;2079683;28;38534;-74
2022/01/16 00:43:23;;;;;;;88.68;31.30;;;;;;;2.62;98.51;102205.28;2080047;28;42175;-74
2022/01/16 00:44:25;;;;;;;91.82;33.78;;;;;;;2.61;98.76;102198.22;2079769;28;43488;-75
2022/01/16 00:45:33;;;;;;;92.75;32.33;;;;;;;2.63;98.98;102194.75;2071403;28;45528;-75
2022/01/16 00:46:37;;;;;;;89.85;32.50;;;;;;;2.64;98.61;102204.50;2079878;28;44413;-75
2022/01/16 00:47:39;;;;;;;104.72;35.83;;;;;;;2.62;98.67;102198.28;2080635;28;35883;-75
2022/01/16 00:48:41;;;;;;;98.65;36.22;;;;;;;2.63;98.65;102186.81;2080075;28;43128;-74
2022/01/16 00:49:43;;;;;;;96.00;34.25;;;;;;;2.65;98.33;102189.53;2079182;28;44185;-74
2022/01/16 00:50:45;;;;;;;98.88;34.88;;;;;;;2.65;98.52;102185.13;2079535;28;44572;-75
2022/01/16 00:51:47;;;;;;;99.15;35.15;;;;;;;2.64;98.51;102178.06;2080068;28;45451;-75
2022/01/16 00:52:48;;;;;;;104.25;34.85;;;;;;;2.65;98.42;102182.47;2088246;28;40467;-74
2022/01/16 00:53:50;;;;;;;94.63;34.60;;;;;;;2.67;98.33;102166.66;2088192;28;45959;-75
2022/01/16 00:54:52;;;;;;;95.45;34.80;;;;;;;2.65;98.30;102161.31;2078786;28;45467;-74
2022/01/16 00:55:54;;;;;;;94.78;34.22;;;;;;;2.65;98.42;102156.03;2079743;28;46317;-75
2022/01/16 00:56:55;;;;;;;97.85;34.10;;;;;;;2.65;98.15;102163.97;2080643;28;33570;-75
2022/01/16 00:57:57;;;;;;;90.65;33.53;;;;;;;2.66;98.51;102163.13;2079760;28;43670;-75
2022/01/16 00:59:02;;;;;;;97.40;35.00;;;;;;;2.69;98.32;102175.53;2079971;28;45797;-74
2022/01/16 01:00:06;;;;;;;90.40;33.92;;;;;;;2.69;98.37;102170.25;2079659;28;45082;-74
2022/01/16 01:01:11;;;;;;;89.63;32.78;;;;;;;2.68;98.21;102169.34;2071446;28;46327;-75
2022/01/16 01:02:16;;;;;;;87.90;33.25;;;;;;;2.70;97.68;102161.47;2080718;28;20104;-75
2022/01/16 01:03:20;;;;;;;86.97;32.38;;;;;;;2.72;97.63;102153.59;2079937;28;43050;-74
2022/01/16 01:04:23;;;;;;;91.00;34.38;;;;;;;2.71;97.57;102149.13;2079304;28;44886;-74
2022/01/16 01:05:25;;;;;;;87.45;33.47;;;;;;;2.73;97.98;102166.84;2063561;28;45614;-74
2022/01/16 01:06:27;;;;;;;87.35;33.75;;;;;;;2.73;97.68;102160.66;2071212;28;45059;-74
2022/01/16 01:07:29;;;;;;;81.28;34.25;;;;;;;2.75;97.68;102161.63;2079697;28;43730;-74
2022/01/16 01:08:45;;;;;;;83.35;32.80;;;;;;;2.74;97.41;102168.63;2073340;28;44284;-74
2022/01/16 01:09:47;;;;;;;80.45;31.77;;;;;;;2.78;97.55;102169.63;2079580;28;45902;-74
2022/01/16 01:10:50;;;;;;;78.70;31.10;;;;;;;2.77;97.49;102178.44;2079564;28;44117;-74
2022/01/16 01:11:52;;;;;;;77.45;31.92;;;;;;;2.78;97.41;102169.63;2071451;28;46398;-74
2022/01/16 01:13:07;;;;;;;79.15;32.72;;;;;;;2.74;97.25;102158.06;2079357;28;43088;-74
2022/01/16 01:15:04;;;;;;;72.93;31.20;;;;;;;2.76;97.25;102151.06;2080819;28;45486;-74
2022/01/16 01:15:48;;;;;;;70.85;30.55;;;;;;;2.78;97.19;102165.25;2077263;28;35568;-75
2022/01/16 01:17:57;;;;;;;65.18;29.65;;;;;;;2.74;96.99;102151.88;2080232;28;45612;-74
2022/01/16 01:18:59;;;;;;;59.80;28.30;;;;;;;2.74;96.41;102151.88;2080122;28;46032;-74
2022/01/16 01:20:01;;;;;;;64.18;28.08;;;;;;;2.71;95.97;102155.34;2080081;28;43904;-74
2022/01/16 01:21:15;;;;;;;55.58;27.85;;;;;;;2.70;96.01;102156.19;2080488;28;31098;-74
2022/01/16 01:22:19;;;;;;;52.13;25.25;;;;;;;2.70;96.16;102157.94;2079991;28;42322;-74
2022/01/16 01:23:21;;;;;;;49.78;25.13;;;;;;;2.70;95.74;102158.81;2079797;28;44572;-74
2022/01/16 01:24:23;;;;;;;49.60;24.92;;;;;;;2.72;96.08;102161.53;2079900;28;44202;-74
2022/01/16 01:25:25;;;;;;;52.95;25.80;;;;;;;2.68;95.56;102164.06;2079929;28;45112;-74
2022/01/16 01:26:34;;;;;;;49.95;25.15;;;;;;;2.70;95.39;102173.81;2079838;28;44913;-74
2022/01/16 01:27:36;;;;;;;52.95;26.08;;;;;;;2.68;95.26;102168.47;2079940;28;41018;-74
2022/01/16 01:28:38;;;;;;;49.40;25.45;;;;;;;2.68;95.41;102163.19;2079749;28;45631;-74
2022/01/16 01:29:45;;;;;;;51.17;25.55;;;;;;;2.68;95.54;102158.78;2079447;28;45662;-74
2022/01/16 01:30:47;;;;;;;51.80;26.05;;;;;;;2.67;95.26;102162.28;2079636;28;45607;-74
2022/01/16 01:31:51;;;;;;;47.42;23.77;;;;;;;2.67;95.40;102171.94;2080126;28;44990;-74
2022/01/16 01:32:55;;;;;;;47.53;25.20;;;;;;;2.65;95.04;102163.97;2080158;28;29076;-74
2022/01/16 01:33:59;;;;;;;47.17;23.55;;;;;;;2.64;94.76;102163.94;2073261;28;21025;-74
2022/01/16 01:35:02;;;;;;;46.08;24.25;;;;;;;2.62;94.35;102179.78;2079070;28;45636;-75
2022/01/16 01:36:04;;;;;;;44.33;23.88;;;;;;;2.63;94.51;102180.66;2079769;28;45142;-74
2022/01/16 01:37:06;;;;;;;40.85;22.63;;;;;;;2.62;94.27;102193.00;2079960;28;46524;-74
2022/01/16 01:38:10;;;;;;;43.58;24.90;;;;;;;2.62;94.46;102197.34;2080049;28;38198;-74
2022/01/16 01:39:13;;;;;;;45.30;23.60;;;;;;;2.60;93.77;102189.41;2079902;28;44427;-74
2022/01/16 01:40:20;;;;;;;47.75;25.85;;;;;;;2.61;93.99;102183.25;2079911;28;44949;-74
2022/01/16 01:41:22;;;;;;;47.03;25.30;;;;;;;2.59;94.27;102182.31;2079920;28;42205;-73
2022/01/16 01:42:31;;;;;;;44.95;24.67;;;;;;;2.60;94.28;102184.13;2080089;28;44035;-74
2022/01/16 01:51:36;;;;;;;43.05;23.45;;;;;;;2.50;92.98;102092.16;2079932;28;43375;-74
2022/01/16 01:52:38;;;;;;;42.78;23.63;;;;;;;2.47;92.83;102085.03;2080208;28;20153;-74
2022/01/16 01:53:42;;;;;;;40.70;23.33;;;;;;;2.45;93.16;102080.56;2072145;28;43935;-74
2022/01/16 01:54:43;;;;;;;37.38;21.92;;;;;;;2.44;92.69;102091.97;2079122;28;44025;-73
2022/01/16 01:55:46;;;;;;;43.15;24.35;;;;;;;2.41;93.01;102094.53;2079958;28;44602;-74
2022/01/16 01:56:50;;;;;;;39.05;22.58;;;;;;;2.43;92.68;102092.84;2078884;28;45315;-74
2022/01/16 01:57:52;;;;;;;40.03;22.38;;;;;;;2.38;92.91;102078.59;2079118;28;43776;-74
2022/01/16 01:58:59;;;;;;;40.20;22.83;;;;;;;2.38;92.96;102084.75;2087361;28;43516;-74
2022/01/16 02:00:01;;;;;;;41.38;22.77;;;;;;;2.38;93.06;102083.88;2079311;28;41801;-74
2022/01/16 02:01:05;;;;;;;41.20;22.70;;;;;;;2.36;92.44;102098.78;2079611;28;20108;-74
2022/01/16 02:02:08;;;;;;;40.67;23.70;;;;;;;2.34;92.55;102114.59;2079959;28;45370;-74
2022/01/16 02:04:14;;;;;;;40.42;23.70;;;;;;;2.34;92.94;102119.88;2080134;28;46021;-74
2022/01/16 02:05:16;;;;;;;40.97;23.30;;;;;;;2.33;92.26;102122.47;2079657;28;45144;-74
2022/01/16 02:06:22;;;;;;;40.80;23.70;;;;;;;2.31;92.38;102125.06;2079379;28;46343;-74
2022/01/16 02:07:24;;;;;;;38.63;21.55;;;;;;;2.31;92.73;102129.47;2080035;28;41471;-74
2022/01/16 02:08:26;;;;;;;41.33;23.08;;;;;;;2.32;93.01;102137.44;2079403;28;45597;-74
2022/01/16 02:09:27;;;;;;;40.50;23.15;;;;;;;2.32;92.88;102131.28;2079266;28;45589;-75
2022/01/16 02:10:29;;;;;;;41.70;23.13;;;;;;;2.28;92.84;102115.31;2079811;28;44990;-74
2022/01/16 02:11:32;;;;;;;42.05;23.38;;;;;;;2.28;92.73;102117.97;2079634;28;44741;-74
2022/01/16 02:12:37;;;;;;;44.53;23.52;;;;;;;2.29;92.92;102132.94;2079878;28;43786;-74
2022/01/16 02:13:55;;;;;;;42.58;23.27;;;;;;;2.28;92.55;102125.88;2079419;28;43046;-74
2022/01/16 02:15:19;;;;;;;42.83;23.08;;;;;;;2.25;93.01;102120.50;2073080;28;45739;-74
2022/01/16 02:29:08;;;;;;;44.70;23.20;;;;;;;2.21;93.55;102115.97;2051725;28;30967;-74
2022/01/16 02:30:54;;;;;;;46.30;23.25;;;;;;;2.21;93.57;102118.63;2079729;28;43623;-74
2022/01/16 02:31:45;;;;;;;46.15;23.73;;;;;;;2.21;93.82;102123.91;2078825;28;45525;-74
2022/01/16 02:33:04;;;;;;;49.45;25.10;;;;;;;2.21;93.49;102123.03;2075949;28;44891;-73
2022/01/16 02:35:27;;;;;;;48.50;24.52;;;;;;;2.22;94.02;102128.31;2079442;28;43991;-74
2022/01/16 02:36:32;;;;;;;49.92;26.58;;;;;;;2.24;93.26;102133.66;2078005;28;43838;-72
2022/01/16 02:37:34;;;;;;;52.78;26.67;;;;;;;2.23;93.46;102131.88;2079138;28;44322;-74
2022/01/16 02:38:40;;;;;;;54.38;26.05;;;;;;;2.23;93.22;102129.25;2079555;28;44557;-73
2022/01/16 02:39:49;;;;;;;50.60;24.90;;;;;;;2.23;93.31;102131.88;2079490;28;45314;-74
2022/01/16 02:40:55;;;;;;;44.53;23.83;;;;;;;2.23;93.35;102135.41;2078851;28;46601;-73
2022/01/16 02:41:59;;;;;;;42.17;22.88;;;;;;;2.25;93.38;102127.53;2072912;28;29011;-74
2022/01/16 02:43:02;;;;;;;52.17;25.50;;;;;;;2.23;93.74;102127.50;2079071;28;43048;-74
2022/01/16 02:44:16;;;;;;;51.42;25.65;;;;;;;2.24;93.59;102131.03;2079546;28;45975;-74
2022/01/16 02:45:29;;;;;;;51.42;26.58;;;;;;;2.23;93.85;102124.84;2079327;28;45345;-74
2022/01/16 02:47:32;;;;;;;54.03;27.05;;;;;;;2.24;93.54;102134.59;2079622;28;43519;-74
2022/01/16 02:48:54;;;;;;;52.72;25.27;;;;;;;2.25;93.40;102139.00;2080708;28;20053;-74
2022/01/16 02:50:00;;;;;;;53.83;27.13;;;;;;;2.24;93.58;102139.88;2079727;28;45782;-74
2022/01/16 02:51:01;;;;;;;49.88;26.13;;;;;;;2.24;93.60;102129.28;2078770;28;43882;-74
2022/01/16 02:52:12;;;;;;;52.75;26.65;;;;;;;2.23;93.81;102129.25;2078451;28;45172;-74
2022/01/16 02:53:14;;;;;;;57.35;27.48;;;;;;;2.24;93.06;102129.28;2080316;28;34515;-74
2022/01/16 02:54:16;;;;;;;52.75;26.50;;;;;;;2.21;93.23;102131.84;2078907;28;45662;-74
2022/01/16 02:55:21;;;;;;;56.60;30.08;;;;;;;2.22;93.47;102132.72;2070576;28;47042;-74
2022/01/16 02:56:23;;;;;;;63.05;31.25;;;;;;;2.19;92.94;102130.91;2078895;28;41439;-74
2022/01/16 02:57:25;;;;;;;63.65;32.13;;;;;;;2.20;93.16;102123.84;2078688;28;45627;-74
2022/01/16 02:58:27;;;;;;;63.10;31.63;;;;;;;2.21;92.78;102126.56;2078948;28;34820;-74
2022/01/16 02:59:30;;;;;;;65.70;31.60;;;;;;;2.20;92.73;102124.75;2079010;28;44045;-73
2022/01/16 03:00:32;;;;;;;60.33;31.98;;;;;;;2.19;93.07;102117.69;2079331;28;45320;-74
2022/01/16 03:01:34;;;;;;;64.30;32.95;;;;;;;2.17;92.55;102108.81;2079602;28;44029;-74
2022/01/16 03:02:36;;;;;;;61.63;32.45;;;;;;;2.18;92.04;102115.00;2079476;28;43930;-74
2022/01/16 03:03:39;;;;;;;58.22;31.95;;;;;;;2.15;91.36;102117.53;2079176;28;44870;-74
2022/01/16 03:04:40;;;;;;;58.97;32.47;;;;;;;2.08;90.81;102114.72;2079604;28;45380;-74
2022/01/16 03:05:42;;;;;;;57.97;30.80;;;;;;;2.06;91.49;102107.56;2079115;28;45315;-74
2022/01/16 03:06:45;;;;;;;59.50;30.35;;;;;;;2.05;91.36;102108.44;2079369;28;30723;-74
2022/01/16 03:07:46;;;;;;;60.83;31.27;;;;;;;2.02;91.83;102106.59;2078982;28;45079;-74
2022/01/16 03:08:48;;;;;;;57.15;31.92;;;;;;;2.01;91.29;102107.44;2079299;28;45460;-74
2022/01/16 03:11:56;;;;;;;57.22;29.83;;;;;;;2.01;91.75;102098.59;2085168;28;20080;-74
2022/01/16 03:12:38;;;;;;;55.95;29.13;;;;;;;1.98;91.51;102093.25;2075943;28;43815;-74
2022/01/16 03:13:48;;;;;;;55.08;29.95;;;;;;;1.96;91.67;102100.25;2080686;28;20041;-74
2022/01/16 03:14:49;;;;;;;54.90;28.80;;;;;;;1.96;91.79;102097.59;2080932;28;44575;-74
2022/01/16 03:15:57;;;;;;;55.85;29.38;;;;;;;1.97;91.97;102097.63;2080834;28;44198;-74
2022/01/16 03:16:59;;;;;;;52.72;27.77;;;;;;;1.98;92.15;102095.91;2080633;28;43364;-74
2022/01/16 03:21:54;;;;;;;49.92;27.50;;;;;;;1.92;91.90;102083.41;2080122;28;42158;-74
2022/01/16 03:22:56;;;;;;;56.03;29.23;;;;;;;1.90;91.73;102087.72;2081229;28;37965;-74
2022/01/16 03:23:58;;;;;;;53.28;27.83;;;;;;;1.92;92.14;102093.97;2080830;28;43383;-74
2022/01/16 03:25:00;;;;;;;50.83;27.23;;;;;;;1.91;91.97;102093.03;2081092;28;45494;-74
2022/01/16 03:26:02;;;;;;;57.72;29.15;;;;;;;1.90;92.37;102091.28;2080587;28;43997;-74
2022/01/16 03:27:16;;;;;;;51.92;27.55;;;;;;;1.86;92.07;102094.63;2081200;28;43436;-74
2022/01/16 03:28:19;;;;;;;48.40;26.63;;;;;;;1.89;92.10;102107.06;2080394;28;46025;-74
2022/01/16 03:29:22;;;;;;;50.60;25.88;;;;;;;1.87;92.28;102093.81;2080347;28;45521;-74
2022/01/16 03:30:24;;;;;;;51.63;26.50;;;;;;;1.79;91.98;102097.94;2079932;28;45227;-74
2022/01/16 03:31:28;;;;;;;52.13;27.23;;;;;;;1.76;91.99;102096.94;2081142;28;40220;-74
2022/01/16 03:32:33;;;;;;;48.42;24.88;;;;;;;1.75;92.29;102100.44;2080829;28;43904;-74
2022/01/16 03:33:34;;;;;;;49.65;25.48;;;;;;;1.71;91.53;102105.63;2081241;28;45553;-74
2022/01/16 03:34:36;;;;;;;48.55;24.67;;;;;;;1.70;91.50;102097.66;2088802;28;32591;-74
2022/01/16 03:35:41;;;;;;;49.13;24.52;;;;;;;1.68;91.72;102100.22;2080156;28;45002;-74
2022/01/16 03:36:43;;;;;;;45.78;23.75;;;;;;;1.64;91.55;102100.09;2080106;28;45130;-74
2022/01/16 03:37:44;;;;;;;53.42;25.98;;;;;;;1.59;91.28;102086.75;2089271;28;42166;-74
2022/01/16 03:38:46;;;;;;;43.95;22.58;;;;;;;1.61;91.68;102089.44;2089183;28;44331;-74
2022/01/16 03:39:48;;;;;;;52.50;25.33;;;;;;;1.61;92.27;102086.78;2079872;28;44918;-74
2022/01/16 03:40:50;;;;;;;53.35;25.83;;;;;;;1.61;92.01;102092.06;2080328;28;43653;-74
2022/01/16 03:41:52;;;;;;;51.50;25.08;;;;;;;1.62;92.49;102091.25;2088968;28;44080;-74
2022/01/16 03:42:59;;;;;;;50.65;24.02;;;;;;;1.60;91.89;102083.28;2088568;28;46081;-74
2022/01/16 03:44:02;;;;;;;52.05;25.30;;;;;;;1.58;91.90;102081.41;2089152;28;45274;-74
2022/01/16 03:45:06;;;;;;;48.58;23.42;;;;;;;1.58;91.73;102081.41;2088653;28;45311;-74
2022/01/16 03:46:08;;;;;;;54.55;26.10;;;;;;;1.57;91.69;102084.91;2089083;28;35600;-74
2022/01/16 03:47:09;;;;;;;51.50;25.02;;;;;;;1.56;92.47;102078.72;2089063;28;44412;-74
2022/01/16 03:48:15;;;;;;;51.85;25.45;;;;;;;1.53;92.19;102091.84;2088996;28;44640;-74
2022/01/16 03:49:21;;;;;;;55.85;25.50;;;;;;;1.53;92.43;102086.56;2079722;28;43065;-74
2022/01/16 03:50:23;;;;;;;50.30;24.58;;;;;;;1.52;92.17;102093.56;2072974;28;44934;-74
2022/01/16 03:51:26;;;;;;;59.13;26.58;;;;;;;1.51;92.29;102089.16;2072520;28;42494;-74
2022/01/16 03:52:28;;;;;;;58.30;26.52;;;;;;;1.52;92.42;102092.66;2072041;28;44254;-74
2022/01/16 03:53:30;;;;;;;54.42;25.08;;;;;;;1.51;92.79;102088.25;2072493;28;44731;-74
2022/01/16 03:54:32;;;;;;;58.00;26.45;;;;;;;1.50;92.42;102089.97;2080246;28;44091;-74
2022/01/16 03:55:36;;;;;;;55.47;26.38;;;;;;;1.49;92.04;102082.94;2089866;28;20914;-74
2022/01/16 03:56:39;;;;;;;58.15;26.17;;;;;;;1.50;92.28;102084.69;2088707;28;42196;-74
2022/01/16 03:57:40;;;;;;;53.22;24.95;;;;;;;1.50;91.99;102083.81;2088715;28;45622;-74
2022/01/16 03:58:42;;;;;;;55.17;26.50;;;;;;;1.47;91.60;102084.63;2088826;28;44390;-73
2022/01/16 03:59:44;;;;;;;58.03;26.52;;;;;;;1.45;91.95;102091.56;2088810;28;44152;-74
2022/01/16 04:00:46;;;;;;;58.22;25.95;;;;;;;1.45;92.16;102091.56;2079911;28;46486;-73
2022/01/16 04:01:49;;;;;;;63.45;27.92;;;;;;;1.43;92.22;102092.38;2080418;28;43965;-74
2022/01/16 04:02:51;;;;;;;64.05;28.15;;;;;;;1.41;92.19;102091.44;2080184;28;44074;-74
2022/01/16 04:03:54;;;;;;;64.15;28.17;;;;;;;1.38;92.46;102092.19;2079963;28;46161;-74
2022/01/16 04:04:56;;;;;;;62.35;28.60;;;;;;;1.40;92.74;102086.97;2089067;28;42138;-73
2022/01/16 04:05:57;;;;;;;64.65;27.70;;;;;;;1.39;92.88;102091.38;2088502;28;43490;-74
2022/01/16 04:07:00;;;;;;;60.00;27.77;;;;;;;1.39;92.73;102090.50;2088927;28;45726;-74
2022/01/16 04:08:02;;;;;;;65.28;29.02;;;;;;;1.39;93.12;102095.75;2088552;28;45334;-74
2022/01/16 04:09:05;;;;;;;62.05;28.13;;;;;;;1.39;93.06;102106.31;2088528;28;46508;-74
2022/01/16 04:10:08;;;;;;;64.82;29.00;;;;;;;1.40;92.52;102108.09;2088671;28;42353;-74
2022/01/16 04:11:10;;;;;;;70.60;30.17;;;;;;;1.38;92.63;102109.78;2089292;28;33749;-74
2022/01/16 04:12:12;;;;;;;65.80;30.08;;;;;;;1.40;93.44;102106.38;2079627;28;45440;-74
2022/01/16 04:13:16;;;;;;;65.95;29.75;;;;;;;1.38;93.22;102109.78;2080216;28;45456;-74
2022/01/16 04:14:26;;;;;;;68.65;30.35;;;;;;;1.37;92.83;102108.91;2088377;28;46261;-74
2022/01/16 04:15:31;;;;;;;70.72;30.90;;;;;;;1.40;93.21;102109.00;2088528;28;42190;-74
2022/01/16 04:16:34;;;;;;;75.88;31.23;;;;;;;1.39;92.83;102117.75;2088306;28;45570;-74
2022/01/16 04:17:35;;;;;;;76.07;32.05;;;;;;;1.37;92.85;102108.91;2088864;28;44863;-74
2022/01/16 04:18:37;;;;;;;72.60;30.25;;;;;;;1.38;93.02;102110.69;2079672;28;42323;-74
2022/01/16 04:19:39;;;;;;;77.22;32.72;;;;;;;1.38;92.49;102099.22;2080875;28;32151;-73
2022/01/16 04:20:41;;;;;;;83.20;34.83;;;;;;;1.37;92.15;102102.72;2088313;28;44902;-74
2022/01/16 04:21:45;;;;;;;80.85;34.10;;;;;;;1.37;92.21;102111.53;2088309;28;44521;-74
2022/01/16 04:22:46;;;;;;;91.22;35.53;;;;;;;1.34;92.72;102098.22;2088587;28;44382;-74
2022/01/16 04:23:50;;;;;;;86.78;35.42;;;;;;;1.36;93.25;102096.53;2088913;28;43130;-74
2022/01/16 04:24:51;;;;;;;88.57;35.85;;;;;;;1.38;93.09;102101.88;2088688;28;30943;-74
2022/01/16 04:25:53;;;;;;;82.55;35.22;;;;;;;1.39;93.02;102093.13;2088481;28;45128;-74
2022/01/16 04:26:57;;;;;;;87.47;34.70;;;;;;;1.38;93.16;102093.97;2088640;28;44095;-73
2022/01/16 04:27:59;;;;;;;91.25;36.47;;;;;;;1.37;92.66;102098.34;2088287;28;46506;-74
2022/01/16 04:29:01;;;;;;;87.43;35.65;;;;;;;1.38;93.23;102104.50;2088698;28;43530;-74
2022/01/16 04:30:04;;;;;;;91.45;36.85;;;;;;;1.39;93.33;102106.31;2087895;28;44079;-74
2022/01/16 04:31:06;;;;;;;93.93;37.40;;;;;;;1.38;93.02;102110.69;2071400;28;43690;-74
2022/01/16 04:32:11;;;;;;;95.10;38.70;;;;;;;1.37;92.65;102097.47;2063855;28;44361;-74
2022/01/16 04:33:13;;;;;;;105.55;39.50;;;;;;;1.37;92.85;102100.97;2080011;28;46249;-74
2022/01/16 04:34:14;;;;;;;102.05;40.05;;;;;;;1.38;93.33;102099.22;2088695;28;43785;-74
2022/01/16 04:35:16;;;;;;;104.88;39.15;;;;;;;1.36;93.37;102096.53;2088740;28;36321;-74
2022/01/16 04:36:18;;;;;;;102.55;38.28;;;;;;;1.35;93.09;102094.75;2088526;28;45545;-74
2022/01/16 04:37:20;;;;;;;103.25;39.75;;;;;;;1.36;93.28;102085.09;2088432;28;45409;-74
2022/01/16 04:38:22;;;;;;;105.18;39.33;;;;;;;1.34;93.25;102090.31;2079604;28;46397;-74
2022/01/16 04:39:31;;;;;;;105.30;41.03;;;;;;;1.33;92.86;102091.19;2079690;28;44072;-74
2022/01/16 04:40:42;;;;;;;104.85;39.22;;;;;;;1.31;93.52;102083.22;2088371;28;45758;-74
2022/01/16 04:44:27;;;;;;;99.97;37.53;;;;;;;1.30;93.50;102077.88;2088281;28;47771;-74
2022/01/16 04:45:29;;;;;;;107.07;39.00;;;;;;;1.29;93.51;102077.00;2079351;28;43599;-74
2022/01/16 04:46:32;;;;;;;104.70;38.13;;;;;;;1.28;93.24;102082.22;2072570;28;33264;-74
2022/01/16 04:47:34;;;;;;;103.05;39.25;;;;;;;1.27;93.03;102080.41;2079533;28;44811;-74
2022/01/16 04:48:36;;;;;;;105.57;38.45;;;;;;;1.28;93.56;102077.81;2088569;28;42154;-74
2022/01/16 04:49:37;;;;;;;106.20;38.78;;;;;;;1.26;93.67;102078.63;2088299;28;39558;-74
2022/01/16 04:50:39;;;;;;;103.72;39.25;;;;;;;1.27;94.04;102075.13;2079410;28;44612;-74
2022/01/16 04:51:41;;;;;;;98.55;37.33;;;;;;;1.28;93.59;102076.94;2079576;28;43870;-74
2022/01/16 04:52:45;;;;;;;104.90;40.30;;;;;;;1.28;93.79;102071.66;2088799;28;46362;-74
2022/01/16 04:53:47;;;;;;;103.90;38.85;;;;;;;1.28;93.91;102076.94;2079622;28;43747;-74
2022/01/16 04:54:48;;;;;;;101.20;38.22;;;;;;;1.29;93.66;102077.00;2071165;28;44058;-74
2022/01/16 04:55:50;;;;;;;103.00;38.60;;;;;;;1.30;93.62;102070.84;2071725;28;44846;-74
2022/01/16 04:56:53;;;;;;;104.28;39.70;;;;;;;1.28;93.64;102069.91;2080221;28;45120;-74
2022/01/16 04:57:54;;;;;;;98.18;36.90;;;;;;;1.31;93.73;102071.75;2071342;28;34958;-74
2022/01/16 04:58:57;;;;;;;103.90;39.08;;;;;;;1.29;94.12;102068.16;2071775;28;43824;-74
2022/01/16 04:59:58;;;;;;;101.70;38.60;;;;;;;1.29;93.81;102057.59;2079833;28;44343;-74
2022/01/16 05:01:01;;;;;;;102.90;39.28;;;;;;;1.28;94.16;102063.75;2079441;28;45563;-74
2022/01/16 05:02:03;;;;;;;98.07;37.45;;;;;;;1.30;93.84;102059.41;2071002;28;44302;-74
2022/01/16 05:03:05;;;;;;;103.47;37.67;;;;;;;1.30;94.37;102060.31;2072002;28;46317;-74
2022/01/16 05:04:10;;;;;;;99.63;37.70;;;;;;;1.28;93.90;102063.75;2080112;28;42623;-74
2022/01/16 05:05:12;;;;;;;97.57;38.53;;;;;;;1.27;94.00;102065.47;2080303;28;43059;-74
2022/01/16 05:06:14;;;;;;;99.50;37.05;;;;;;;1.29;93.85;102065.53;2080476;28;23850;-74
2022/01/16 05:07:15;;;;;;;92.82;35.78;;;;;;;1.26;93.93;102062.81;2080133;28;45114;-74
2022/01/16 05:08:20;;;;;;;101.38;38.08;;;;;;;1.25;93.99;102063.63;2080349;28;20097;-74
2022/01/16 05:09:21;;;;;;;99.65;37.05;;;;;;;1.26;94.24;102058.41;2080472;28;32262;-74
2022/01/16 05:10:23;;;;;;;94.82;35.47;;;;;;;1.25;94.30;102053.97;2062944;28;43785;-74
2022/01/16 05:11:26;;;;;;;93.65;35.15;;;;;;;1.27;94.30;102054.03;2055827;28;43988;-74
2022/01/16 05:12:34;;;;;;;100.75;36.70;;;;;;;1.24;94.21;102048.63;2063464;28;43723;-74
2022/01/16 05:17:19;;;;;;;84.15;32.53;;;;;;;1.25;94.47;102039.88;2073616;28;45368;-74
2022/01/16 05:18:20;;;;;;;93.40;34.65;;;;;;;1.23;94.45;102046.88;2063275;28;42182;-74
2022/01/16 05:19:22;;;;;;;98.10;36.25;;;;;;;1.22;94.32;102047.69;2055375;28;43877;-74
2022/01/16 05:20:24;;;;;;;93.57;36.28;;;;;;;1.19;94.34;102039.69;2064040;28;20069;-74
2022/01/16 05:21:26;;;;;;;97.88;37.75;;;;;;;1.22;94.60;102035.44;2071640;28;43017;-74
2022/01/16 05:22:30;;;;;;;97.60;36.05;;;;;;;1.21;94.99;102033.63;2070814;28;44994;-74
2022/01/16 05:23:33;;;;;;;101.15;37.00;;;;;;;1.22;94.98;102039.78;2071816;28;43747;-74
2022/01/16 05:24:37;;;;;;;95.50;37.20;;;;;;;1.20;94.90;102030.94;2080264;28;42782;-74
2022/01/16 05:25:40;;;;;;;111.28;38.47;;;;;;;1.21;94.87;102032.72;2087001;28;33579;-74
2022/01/16 05:26:43;;;;;;;94.93;35.65;;;;;;;1.21;95.02;102032.72;2088172;28;45198;-74
2022/01/16 05:27:45;;;;;;;96.45;37.97;;;;;;;1.21;94.90;102023.06;2079526;28;43902;-74
2022/01/16 05:28:47;;;;;;;100.22;37.20;;;;;;;1.20;95.02;102029.16;2071406;28;41447;-74
2022/01/16 05:29:49;;;;;;;101.95;38.38;;;;;;;1.19;94.99;102027.41;2079146;28;44049;-74
2022/01/16 05:30:51;;;;;;;101.05;36.67;;;;;;;1.22;94.91;102030.16;2088735;28;32772;-74
2022/01/16 05:31:52;;;;;;;106.55;38.67;;;;;;;1.22;95.16;102023.94;2088545;28;45166;-74
2022/01/16 05:32:54;;;;;;;102.75;38.28;;;;;;;1.22;95.56;102024.88;2087876;28;44559;-74
2022/01/16 05:33:58;;;;;;;108.32;38.45;;;;;;;1.24;95.90;102027.53;2088777;28;34667;-74